Trade Center, Virginia
Current Conditions -  °F | °C
As of 6:52 AM on Friday 31 Oct 2014 (Local Time) from KDCA Reporting Station
Broken Clouds Broken Clouds  
Wind Chill: 49°   Ceiling: 6000
Heat Index: 49°   Visibility: 10mi
Dew Point: 37°   Wind: 3mph
Humidity: 64%   Direction: 90°E
Pressure: 30.01"   Gusts: NA
Location:  38.8134°N, 77.1153°W
Report Text: KDCA 311052Z 09003KT 10SM BKN060 09/03 A3001 RMK AO2 SLP160 T00940028
Loading
Personal Weather Stations






























Interactive Weather Map
Tropical Storm Tracking
New forecast layout! Learn more

10-Day Weather Forecast

Advertisements
Track Severe Weather on mobile